Time;durP1;ratioP1;P1;durP2;ratioP2;P2;SDS_P1;SDS_P2;PMS_P1;PMS_P2;Temp;Humidity;BMP_temperature;BMP_pressure;BME280_temperature;BME280_humidity;BME280_pressure;Samples;Min_cycle;Max_cycle;Signal;HPM_P1;HPM_P2
2022/03/19 00:02:24;;;;;;;;;;;;;;;;;;4961042;28;118055;-66
2022/03/19 00:04:51;;;;;;;;;;;;;;;;;;4966090;28;136816;-66
2022/03/19 00:07:18;;;;;;;;;;;;;;;;;;4962002;28;134828;-66
2022/03/19 00:09:44;;;;;;;;;;;;;;;;;;4968759;28;122477;-66
2022/03/19 00:12:14;;;;;;;;;;;;;;;;;;4968130;28;137894;-66
2022/03/19 00:14:40;;;;;;;;;;;;;;;;;;4960586;28;122967;-66
2022/03/19 00:17:06;;;;;;;;;;;;;;;;;;4959936;28;137045;-66
2022/03/19 00:19:32;;;;;;;;;;;;;;;;;;4966889;28;135897;-66
2022/03/19 00:21:59;;;;;;;;;;;;;;;;;;4954621;28;124752;-66
2022/03/19 00:24:25;;;;;;;;;;;;;;;;;;4971697;28;123267;-66
2022/03/19 00:26:51;;;;;;;;;;;;;;;;;;4965820;28;137282;-66
2022/03/19 00:29:18;;;;;;;;;;;;;;;;;;4968437;28;106116;-66
2022/03/19 00:31:44;;;;;;;;;;;;;;;;;;4962573;28;106988;-66
2022/03/19 00:34:10;;;;;;;;;;;;;;;;;;4967364;28;107197;-67
2022/03/19 00:36:37;;;;;;;;;;;;;;;;;;4960529;28;136742;-66
2022/03/19 00:39:04;;;;;;;;;;;;;;;;;;4967611;28;136946;-68
2022/03/19 00:41:30;;;;;;;;;;;;;;;;;;4958567;28;123337;-66
2022/03/19 00:43:56;;;;;;;;;;;;;;;;;;4966632;28;136276;-66
2022/03/19 00:46:22;;;;;;;;;;;;;;;;;;4962920;28;136227;-66
2022/03/19 00:48:49;;;;;;;;;;;;;;;;;;4964964;28;117147;-65
2022/03/19 00:51:15;;;;;;;;;;;;;;;;;;4958516;28;137180;-66
2022/03/19 00:53:41;;;;;;;;;;;;;;;;;;4967943;28;137707;-66
2022/03/19 00:56:08;;;;;;;;;;;;;;;;;;4960309;28;136776;-66
2022/03/19 00:58:34;;;;;;;;;;;;;;;;;;4967516;28;137691;-67
2022/03/19 01:01:00;;;;;;;;;;;;;;;;;;4966176;28;123175;-66
2022/03/19 01:03:27;;;;;;;;;;;;;;;;;;4972995;28;136385;-66
2022/03/19 01:05:53;;;;;;;;;;;;;;;;;;4972552;28;108803;-66
2022/03/19 01:08:20;;;;;;;;;;;;;;;;;;4967468;28;106179;-67
2022/03/19 01:10:46;;;;;;;;;;;;;;;;;;4966816;28;136276;-67
2022/03/19 01:13:12;;;;;;;;;;;;;;;;;;4966097;28;127436;-66
2022/03/19 01:15:38;;;;;;;;;;;;;;;;;;4970677;28;122554;-66
2022/03/19 01:18:05;;;;;;;;;;;;;;;;;;4968934;28;136240;-66
2022/03/19 01:20:31;;;;;;;;;;;;;;;;;;4966037;28;123273;-66
2022/03/19 01:22:57;;;;;;;;;;;;;;;;;;4969238;28;135203;-66
2022/03/19 01:25:25;;;;;;;;;;;;;;;;;;4975172;28;109269;-66
2022/03/19 01:27:51;;;;;;;;;;;;;;;;;;4968808;28;123148;-66
2022/03/19 01:30:17;;;;;;;;;;;;;;;;;;4967404;28;107004;-66
2022/03/19 01:32:44;;;;;;;;;;;;;;;;;;4970344;28;133504;-66
2022/03/19 01:35:10;;;;;;;;;;;;;;;;;;4967361;28;123111;-67
2022/03/19 01:37:36;;;;;;;;;;;;;;;;;;4970596;28;136955;-67
2022/03/19 01:40:03;;;;;;;;;;;;;;;;;;4963640;28;122290;-66
2022/03/19 01:42:29;;;;;;;;;;;;;;;;;;4962168;28;107526;-66
2022/03/19 01:44:55;;;;;;;;;;;;;;;;;;4969076;28;127411;-66
2022/03/19 01:47:23;;;;;;;;;;;;;;;;;;4964714;28;121948;-66
2022/03/19 01:49:49;;;;;;;;;;;;;;;;;;4962705;28;136757;-66
2022/03/19 01:52:15;;;;;;;;;;;;;;;;;;4958022;28;137676;-68
2022/03/19 01:54:41;;;;;;;;;;;;;;;;;;4970068;28;123907;-66
2022/03/19 01:57:08;;;;;;;;;;;;;;;;;;4961211;28;136278;-66
2022/03/19 01:59:34;;;;;;;;;;;;;;;;;;4968684;28;112199;-67
2022/03/19 02:02:00;;;;;;;;;;;;;;;;;;4987582;28;112216;-66
2022/03/19 02:06:59;;;;;;;;;;;;;;;;;;4946380;28;109822;-67
2022/03/19 02:09:26;;;;;;;;;;;;;;;;;;4960079;28;129976;-67
2022/03/19 02:11:52;;;;;;;;;;;;;;;;;;4951909;28;135583;-66
2022/03/19 02:14:18;;;;;;;;;;;;;;;;;;4959401;28;124837;-66
2022/03/19 02:16:44;;;;;;;;;;;;;;;;;;4945061;28;134986;-66
2022/03/19 02:19:11;;;;;;;;;;;;;;;;;;4947768;28;136568;-67
2022/03/19 02:21:37;;;;;;;;;;;;;;;;;;4946263;28;136525;-67
2022/03/19 02:26:48;;;;;;;;;;;;;;;;;;4951508;28;112913;-67
2022/03/19 02:29:14;;;;;;;;;;;;;;;;;;4954715;28;134907;-65
2022/03/19 02:31:41;;;;;;;;;;;;;;;;;;4954807;28;108407;-66
2022/03/19 02:34:11;;;;;;;;;;;;;;;;;;4949290;28;120928;-66
2022/03/19 02:36:37;;;;;;;;;;;;;;;;;;4950006;28;135134;-66
2022/03/19 02:39:28;;;;;;;;;;;;;;;;;;4958685;28;107256;-67
2022/03/19 02:41:54;;;;;;;;;;;;;;;;;;4955674;28;121933;-67
2022/03/19 02:44:21;;;;;;;;;;;;;;;;;;4956690;28;134412;-67
2022/03/19 02:46:47;;;;;;;;;;;;;;;;;;4950339;28;121956;-67
2022/03/19 02:49:13;;;;;;;;;;;;;;;;;;4954060;28;135318;-67
2022/03/19 02:51:39;;;;;;;;;;;;;;;;;;4949316;28;137020;-67
2022/03/19 02:54:06;;;;;;;;;;;;;;;;;;4951035;28;123368;-68
2022/03/19 02:56:32;;;;;;;;;;;;;;;;;;4953717;28;134988;-67
2022/03/19 02:58:58;;;;;;;;;;;;;;;;;;4954246;28;135800;-67
2022/03/19 03:01:25;;;;;;;;;;;;;;;;;;4955433;28;108056;-67
2022/03/19 03:03:52;;;;;;;;;;;;;;;;;;4958559;28;135267;-67
2022/03/19 03:06:20;;;;;;;;;;;;;;;;;;4948516;28;123281;-67
2022/03/19 03:08:46;;;;;;;;;;;;;;;;;;4964240;28;137722;-66
2022/03/19 03:11:13;;;;;;;;;;;;;;;;;;4941982;28;138094;-67
2022/03/19 03:13:39;;;;;;;;;;;;;;;;;;4946328;28;120888;-67
2022/03/19 03:16:05;;;;;;;;;;;;;;;;;;4948787;28;135257;-68
2022/03/19 03:18:31;;;;;;;;;;;;;;;;;;4942023;28;137239;-67
2022/03/19 03:20:58;;;;;;;;;;;;;;;;;;4942557;28;122686;-66
2022/03/19 03:23:26;;;;;;;;;;;;;;;;;;4953311;28;137287;-66
2022/03/19 03:25:52;;;;;;;;;;;;;;;;;;4953407;28;135605;-66
2022/03/19 03:28:18;;;;;;;;;;;;;;;;;;4935703;28;136148;-65
2022/03/19 03:30:45;;;;;;;;;;;;;;;;;;4950546;28;126180;-66
2022/03/19 03:33:11;;;;;;;;;;;;;;;;;;4951939;28;115747;-66
2022/03/19 03:35:37;;;;;;;;;;;;;;;;;;4944012;28;126979;-66
2022/03/19 03:38:03;;;;;;;;;;;;;;;;;;4945451;28;137011;-67
2022/03/19 03:40:30;;;;;;;;;;;;;;;;;;4943921;28;120769;-66
2022/03/19 03:42:56;;;;;;;;;;;;;;;;;;4952170;28;137378;-66
2022/03/19 03:45:22;;;;;;;;;;;;;;;;;;4949076;28;137088;-66
2022/03/19 03:47:49;;;;;;;;;;;;;;;;;;4948847;28;123183;-66
2022/03/19 03:50:16;;;;;;;;;;;;;;;;;;4949069;28;138248;-66
2022/03/19 03:52:42;;;;;;;;;;;;;;;;;;4942943;28;124546;-66
2022/03/19 03:55:09;;;;;;;;;;;;;;;;;;4947043;28;106421;-66
2022/03/19 03:57:35;;;;;;;;;;;;;;;;;;4951322;28;137723;-66
2022/03/19 04:00:01;;;;;;;;;;;;;;;;;;4952862;28;106368;-66
2022/03/19 04:02:37;;;;;;;;;;;;;;;;;;4952676;28;106486;-67
2022/03/19 04:05:04;;;;;;;;;;;;;;;;;;4948679;28;136749;-67
2022/03/19 04:07:30;;;;;;;;;;;;;;;;;;4947064;28;120731;-67
2022/03/19 04:09:57;;;;;;;;;;;;;;;;;;4946883;28;137042;-67
2022/03/19 04:12:23;;;;;;;;;;;;;;;;;;4944482;28;121968;-67
2022/03/19 04:14:49;;;;;;;;;;;;;;;;;;4948844;28;137273;-66
2022/03/19 04:17:16;;;;;;;;;;;;;;;;;;4946321;28;137012;-66
2022/03/19 04:19:42;;;;;;;;;;;;;;;;;;4941724;28;121767;-66
2022/03/19 04:22:08;;;;;;;;;;;;;;;;;;4949574;28;134623;-66
2022/03/19 04:24:34;;;;;;;;;;;;;;;;;;4946657;28;137423;-67
2022/03/19 04:27:01;;;;;;;;;;;;;;;;;;4948652;28;123786;-67
2022/03/19 04:29:27;;;;;;;;;;;;;;;;;;4949820;28;135936;-66
2022/03/19 04:31:53;;;;;;;;;;;;;;;;;;4956396;28;123203;-66
2022/03/19 04:34:20;;;;;;;;;;;;;;;;;;4952028;28;134009;-67
2022/03/19 04:36:46;;;;;;;;;;;;;;;;;;4949632;28;137691;-66
2022/03/19 04:39:12;;;;;;;;;;;;;;;;;;4951660;28;122636;-66
2022/03/19 04:41:38;;;;;;;;;;;;;;;;;;4956790;28;135827;-68
2022/03/19 04:44:05;;;;;;;;;;;;;;;;;;4954116;28;137838;-66
2022/03/19 04:46:31;;;;;;;;;;;;;;;;;;4957552;28;122373;-67
2022/03/19 04:48:57;;;;;;;;;;;;;;;;;;4952734;28;136372;-67
2022/03/19 04:51:24;;;;;;;;;;;;;;;;;;4963484;28;137917;-67
2022/03/19 04:53:53;;;;;;;;;;;;;;;;;;4955093;28;137246;-67
2022/03/19 04:56:19;;;;;;;;;;;;;;;;;;4952503;28;108160;-67
2022/03/19 04:58:46;;;;;;;;;;;;;;;;;;4953373;28;106393;-67
2022/03/19 05:01:12;;;;;;;;;;;;;;;;;;4953466;28;106706;-67
2022/03/19 05:03:39;;;;;;;;;;;;;;;;;;4952619;28;109944;-67
2022/03/19 05:06:05;;;;;;;;;;;;;;;;;;4951138;28;120299;-67
2022/03/19 05:08:32;;;;;;;;;;;;;;;;;;4952511;28;136545;-67
2022/03/19 05:11:13;;;;;;;;;;;;;;;;;;4948942;28;135724;-67
2022/03/19 05:13:39;;;;;;;;;;;;;;;;;;4955386;28;121594;-67
2022/03/19 05:16:06;;;;;;;;;;;;;;;;;;4959318;28;117267;-67
2022/03/19 05:18:32;;;;;;;;;;;;;;;;;;4947879;28;123037;-67
2022/03/19 05:20:58;;;;;;;;;;;;;;;;;;4956437;28;133824;-67
2022/03/19 05:23:25;;;;;;;;;;;;;;;;;;4957867;28;112707;-67
2022/03/19 05:25:52;;;;;;;;;;;;;;;;;;4952078;28;105696;-67
2022/03/19 05:28:18;;;;;;;;;;;;;;;;;;4952084;28;135365;-67
2022/03/19 05:30:52;;;;;;;;;;;;;;;;;;4958456;28;135083;-67
2022/03/19 05:33:18;;;;;;;;;;;;;;;;;;4951495;28;121916;-67
2022/03/19 05:35:45;;;;;;;;;;;;;;;;;;4955346;28;114457;-66
2022/03/19 05:38:12;;;;;;;;;;;;;;;;;;4950274;28;124150;-66
2022/03/19 05:40:38;;;;;;;;;;;;;;;;;;4952538;28;136612;-66
2022/03/19 05:43:04;;;;;;;;;;;;;;;;;;4953398;28;137266;-67
2022/03/19 05:45:31;;;;;;;;;;;;;;;;;;4950643;28;122032;-66
2022/03/19 05:47:57;;;;;;;;;;;;;;;;;;4953143;28;135862;-65
2022/03/19 05:50:24;;;;;;;;;;;;;;;;;;4955096;28;136399;-67
2022/03/19 05:52:50;;;;;;;;;;;;;;;;;;4945831;28;122241;-66
2022/03/19 05:55:16;;;;;;;;;;;;;;;;;;4950049;28;106397;-66
2022/03/19 05:57:42;;;;;;;;;;;;;;;;;;4953501;28;106858;-66
2022/03/19 06:00:10;;;;;;;;;;;;;;;;;;4955938;28;135891;-66
2022/03/19 06:02:40;;;;;;;;;;;;;;;;;;4946830;28;107249;-66
2022/03/19 06:05:07;;;;;;;;;;;;;;;;;;4945195;28;123337;-67
2022/03/19 06:07:33;;;;;;;;;;;;;;;;;;4930584;28;121825;-67
2022/03/19 06:09:59;;;;;;;;;;;;;;;;;;4937034;28;135128;-66
2022/03/19 06:12:26;;;;;;;;;;;;;;;;;;4935841;28;122580;-66
2022/03/19 06:14:53;;;;;;;;;;;;;;;;;;4925074;28;134793;-66
2022/03/19 06:17:20;;;;;;;;;;;;;;;;;;4951653;28;136638;-66
2022/03/19 06:19:46;;;;;;;;;;;;;;;;;;4925614;28;138060;-66
2022/03/19 06:22:12;;;;;;;;;;;;;;;;;;4935406;28;125901;-66
2022/03/19 06:24:39;;;;;;;;;;;;;;;;;;4930044;28;123344;-66
2022/03/19 06:27:05;;;;;;;;;;;;;;;;;;4930586;28;133379;-66
2022/03/19 06:29:31;;;;;;;;;;;;;;;;;;4922969;28;137754;-65
2022/03/19 06:31:58;;;;;;;;;;;;;;;;;;4926432;28;125076;-66
2022/03/19 06:34:24;;;;;;;;;;;;;;;;;;4928694;28;116910;-66
2022/03/19 06:39:36;;;;;;;;;;;;;;;;;;4934269;28;121987;-66
2022/03/19 06:42:02;;;;;;;;;;;;;;;;;;4930876;28;136937;-66
2022/03/19 06:44:28;;;;;;;;;;;;;;;;;;4931512;28;123152;-68
2022/03/19 06:46:54;;;;;;;;;;;;;;;;;;4935643;28;138368;-68
2022/03/19 06:49:21;;;;;;;;;;;;;;;;;;4930738;28;107854;-68
2022/03/19 06:51:47;;;;;;;;;;;;;;;;;;4934175;28;120645;-68
2022/03/19 06:54:14;;;;;;;;;;;;;;;;;;4929712;28;137431;-68
2022/03/19 06:56:40;;;;;;;;;;;;;;;;;;4930081;28;108589;-68
2022/03/19 06:59:06;;;;;;;;;;;;;;;;;;4931603;28;123150;-67
2022/03/19 07:01:36;;;;;;;;;;;;;;;;;;4936910;28;135825;-66
2022/03/19 07:04:03;;;;;;;;;;;;;;;;;;4924858;28;123256;-66
2022/03/19 07:06:29;;;;;;;;;;;;;;;;;;4952516;28;137056;-66
2022/03/19 07:09:16;;;;;;;;;;;;;;;;;;4934346;28;107489;-66
2022/03/19 07:11:42;;;;;;;;;;;;;;;;;;4960018;28;124471;-66
2022/03/19 07:14:08;;;;;;;;;;;;;;;;;;4950223;28;136965;-66
2022/03/19 07:16:37;;;;;;;;;;;;;;;;;;4954781;28;107257;-66
2022/03/19 07:19:04;;;;;;;;;;;;;;;;;;4948459;28;121510;-66
2022/03/19 07:21:30;;;;;;;;;;;;;;;;;;4947796;28;136475;-66
2022/03/19 07:23:56;;;;;;;;;;;;;;;;;;4950563;28;133602;-65
2022/03/19 07:26:23;;;;;;;;;;;;;;;;;;4943678;28;122772;-66
2022/03/19 07:28:49;;;;;;;;;;;;;;;;;;4956893;28;137404;-65
2022/03/19 07:31:15;;;;;;;;;;;;;;;;;;4943459;28;122936;-65
2022/03/19 07:33:42;;;;;;;;;;;;;;;;;;4939204;28;131390;-66
2022/03/19 07:36:08;;;;;;;;;;;;;;;;;;4949720;28;137483;-65
2022/03/19 07:38:34;;;;;;;;;;;;;;;;;;4951805;28;122454;-66
2022/03/19 07:43:50;;;;;;;;;;;;;;;;;;4928928;28;137998;-65
2022/03/19 07:46:16;;;;;;;;;;;;;;;;;;4950416;28;112052;-65
2022/03/19 07:48:43;;;;;;;;;;;;;;;;;;4949229;28;137000;-65
2022/03/19 07:51:09;;;;;;;;;;;;;;;;;;4949699;28;122485;-69
2022/03/19 07:53:37;;;;;;;;;;;;;;;;;;4946545;28;134488;-67
2022/03/19 07:56:03;;;;;;;;;;;;;;;;;;4959236;28;136022;-67
2022/03/19 07:58:29;;;;;;;;;;;;;;;;;;4950690;28;122748;-67
2022/03/19 08:00:56;;;;;;;;;;;;;;;;;;4947350;28;136447;-66
2022/03/19 08:03:22;;;;;;;;;;;;;;;;;;4953241;28;135742;-69
2022/03/19 08:05:49;;;;;;;;;;;;;;;;;;4951335;28;122643;-65
2022/03/19 08:08:15;;;;;;;;;;;;;;;;;;4948176;28;137466;-64
2022/03/19 08:10:42;;;;;;;;;;;;;;;;;;4942454;28;124321;-64
2022/03/19 08:13:08;;;;;;;;;;;;;;;;;;4951982;28;136886;-69
2022/03/19 08:15:37;;;;;;;;;;;;;;;;;;4948695;28;136558;-68
2022/03/19 08:18:04;;;;;;;;;;;;;;;;;;4953492;28;124286;-68
2022/03/19 08:20:31;;;;;;;;;;;;;;;;;;4949882;28;136277;-64
2022/03/19 08:22:57;;;;;;;;;;;;;;;;;;4953771;28;137467;-65
2022/03/19 08:25:24;;;;;;;;;;;;;;;;;;4943271;28;123633;-66
2022/03/19 08:27:50;;;;;;;;;;;;;;;;;;4951973;28;136618;-65
2022/03/19 08:30:17;;;;;;;;;;;;;;;;;;4945073;28;121354;-67
2022/03/19 08:32:43;;;;;;;;;;;;;;;;;;4949618;28;127878;-71
2022/03/19 08:35:09;;;;;;;;;;;;;;;;;;4944345;28;136465;-68
2022/03/19 08:37:36;;;;;;;;;;;;;;;;;;4944159;28;106525;-67
2022/03/19 08:40:18;;;;;;;;;;;;;;;;;;4947845;28;136586;-67
2022/03/19 08:42:45;;;;;;;;;;;;;;;;;;4953503;28;138146;-67
2022/03/19 08:45:11;;;;;;;;;;;;;;;;;;4944389;28;123024;-67
2022/03/19 08:47:37;;;;;;;;;;;;;;;;;;4944440;28;135321;-66
2022/03/19 08:50:03;;;;;;;;;;;;;;;;;;4957058;28;135328;-67
2022/03/19 08:52:30;;;;;;;;;;;;;;;;;;4952703;28;137448;-66
2022/03/19 08:54:56;;;;;;;;;;;;;;;;;;4948529;28;137766;-66
2022/03/19 08:57:22;;;;;;;;;;;;;;;;;;4946338;28;114854;-66
2022/03/19 08:59:49;;;;;;;;;;;;;;;;;;4949531;28;136550;-66
2022/03/19 09:02:35;;;;;;;;;;;;;;;;;;4956649;28;107993;-66
2022/03/19 09:05:01;;;;;;;;;;;;;;;;;;4941872;28;124104;-66
2022/03/19 09:07:27;;;;;;;;;;;;;;;;;;4938627;28;136108;-66
2022/03/19 09:09:54;;;;;;;;;;;;;;;;;;4944316;28;137231;-66
2022/03/19 09:12:31;;;;;;;;;;;;;;;;;;4950135;28;122497;-66
2022/03/19 09:14:58;;;;;;;;;;;;;;;;;;4946178;28;107272;-66
2022/03/19 09:17:24;;;;;;;;;;;;;;;;;;4940166;28;106108;-66
2022/03/19 09:19:50;;;;;;;;;;;;;;;;;;4947648;28;137008;-65
2022/03/19 09:22:17;;;;;;;;;;;;;;;;;;4948624;28;137623;-66
2022/03/19 09:24:43;;;;;;;;;;;;;;;;;;4947688;28;124625;-66
2022/03/19 09:27:10;;;;;;;;;;;;;;;;;;4943408;28;136536;-67
2022/03/19 09:29:36;;;;;;;;;;;;;;;;;;4957508;28;137153;-66
2022/03/19 09:32:02;;;;;;;;;;;;;;;;;;4948149;28;123307;-66
2022/03/19 09:34:29;;;;;;;;;;;;;;;;;;4952233;28;108336;-66
2022/03/19 09:36:56;;;;;;;;;;;;;;;;;;4960474;28;123182;-65
2022/03/19 09:39:22;;;;;;;;;;;;;;;;;;4958357;28;128780;-67
2022/03/19 09:41:48;;;;;;;;;;;;;;;;;;4949511;28;135700;-66
2022/03/19 09:44:16;;;;;;;;;;;;;;;;;;4958704;28;122498;-67
2022/03/19 09:46:45;;;;;;;;;;;;;;;;;;4950981;28;136873;-67
2022/03/19 09:49:11;;;;;;;;;;;;;;;;;;4946362;28;136910;-68
2022/03/19 09:51:39;;;;;;;;;;;;;;;;;;4945228;28;122951;-67
2022/03/19 09:54:05;;;;;;;;;;;;;;;;;;4955949;28;135180;-68
2022/03/19 09:56:32;;;;;;;;;;;;;;;;;;4957654;28;136858;-66
2022/03/19 09:58:58;;;;;;;;;;;;;;;;;;4948322;28;129287;-66
2022/03/19 10:01:29;;;;;;;;;;;;;;;;;;4957731;28;137052;-66
2022/03/19 10:03:55;;;;;;;;;;;;;;;;;;4942923;28;123732;-67
2022/03/19 10:09:07;;;;;;;;;;;;;;;;;;4935264;28;137770;-67
2022/03/19 10:11:33;;;;;;;;;;;;;;;;;;4948298;28;117371;-66
2022/03/19 10:14:00;;;;;;;;;;;;;;;;;;4947907;28;132707;-66
2022/03/19 10:16:28;;;;;;;;;;;;;;;;;;4951150;28;136831;-69
2022/03/19 10:18:55;;;;;;;;;;;;;;;;;;4950661;28;136957;-67
2022/03/19 10:21:21;;;;;;;;;;;;;;;;;;4946000;28;137374;-66
2022/03/19 10:23:48;;;;;;;;;;;;;;;;;;4957523;28;108325;-66
2022/03/19 10:26:14;;;;;;;;;;;;;;;;;;4951275;28;135243;-66
2022/03/19 10:28:44;;;;;;;;;;;;;;;;;;4951125;28;109795;-66
2022/03/19 10:31:10;;;;;;;;;;;;;;;;;;4941157;28;122977;-64
2022/03/19 10:33:37;;;;;;;;;;;;;;;;;;4948733;28;136605;-68
2022/03/19 10:36:03;;;;;;;;;;;;;;;;;;4947822;28;137789;-66
2022/03/19 10:38:29;;;;;;;;;;;;;;;;;;4955595;28;117698;-66
2022/03/19 10:40:55;;;;;;;;;;;;;;;;;;4942530;28;137004;-66
2022/03/19 10:43:22;;;;;;;;;;;;;;;;;;4946474;28;122131;-66
2022/03/19 10:45:48;;;;;;;;;;;;;;;;;;4935231;28;135664;-68
2022/03/19 10:48:15;;;;;;;;;;;;;;;;;;4942061;28;132059;-67
2022/03/19 10:50:41;;;;;;;;;;;;;;;;;;4947230;28;122281;-66
2022/03/19 10:53:08;;;;;;;;;;;;;;;;;;4947703;28;107267;-66
2022/03/19 10:55:35;;;;;;;;;;;;;;;;;;4946673;28;107952;-66
2022/03/19 10:58:02;;;;;;;;;;;;;;;;;;4950266;28;106203;-66
2022/03/19 11:00:29;;;;;;;;;;;;;;;;;;4953750;28;107077;-66
2022/03/19 11:02:57;;;;;;;;;;;;;;;;;;4949506;28;124031;-66
2022/03/19 11:05:24;;;;;;;;;;;;;;;;;;4947906;28;138538;-67
2022/03/19 11:07:50;;;;;;;;;;;;;;;;;;4942038;28;137950;-67
2022/03/19 11:10:18;;;;;;;;;;;;;;;;;;4938155;28;123562;-70
2022/03/19 11:12:50;;;;;;;;;;;;;;;;;;4946556;28;137641;-66
2022/03/19 11:15:16;;;;;;;;;;;;;;;;;;4947520;28;137167;-67
2022/03/19 11:17:42;;;;;;;;;;;;;;;;;;4950291;28;122474;-68
2022/03/19 11:20:09;;;;;;;;;;;;;;;;;;4939866;28;134282;-67
2022/03/19 11:22:42;;;;;;;;;;;;;;;;;;4948524;28;137697;-67
2022/03/19 11:25:08;;;;;;;;;;;;;;;;;;4944982;28;136793;-67
2022/03/19 11:27:41;;;;;;;;;;;;;;;;;;4950240;28;107190;-66
2022/03/19 11:30:07;;;;;;;;;;;;;;;;;;4948107;28;122076;-67
2022/03/19 11:32:33;;;;;;;;;;;;;;;;;;4951966;28;137574;-66
2022/03/19 11:35:00;;;;;;;;;;;;;;;;;;4949649;28;112104;-66
2022/03/19 11:37:26;;;;;;;;;;;;;;;;;;4942908;28;121752;-66
2022/03/19 11:39:52;;;;;;;;;;;;;;;;;;4948572;28;135312;-66
2022/03/19 11:42:19;;;;;;;;;;;;;;;;;;4947693;28;136922;-66
2022/03/19 11:44:45;;;;;;;;;;;;;;;;;;4947213;28;112239;-65
2022/03/19 11:47:13;;;;;;;;;;;;;;;;;;4947311;28;138847;-64
2022/03/19 11:49:40;;;;;;;;;;;;;;;;;;4952393;28;122978;-66
2022/03/19 11:52:06;;;;;;;;;;;;;;;;;;4946887;28;131380;-67
2022/03/19 11:54:33;;;;;;;;;;;;;;;;;;4949944;28;137117;-65
2022/03/19 11:56:59;;;;;;;;;;;;;;;;;;4958431;28;121979;-65
2022/03/19 11:59:26;;;;;;;;;;;;;;;;;;4948295;28;137352;-64
2022/03/19 12:01:55;;;;;;;;;;;;;;;;;;4946785;28;135580;-65
2022/03/19 12:04:24;;;;;;;;;;;;;;;;;;4945752;28;107799;-64
2022/03/19 12:06:50;;;;;;;;;;;;;;;;;;4941491;28;136326;-64
2022/03/19 12:09:17;;;;;;;;;;;;;;;;;;4945713;28;123970;-65
2022/03/19 12:11:43;;;;;;;;;;;;;;;;;;4943508;28;135438;-66
2022/03/19 12:14:15;;;;;;;;;;;;;;;;;;4945841;28;131656;-67
2022/03/19 12:16:41;;;;;;;;;;;;;;;;;;4947851;28;122624;-66
2022/03/19 12:19:08;;;;;;;;;;;;;;;;;;4949658;28;108971;-64
2022/03/19 12:21:35;;;;;;;;;;;;;;;;;;4946432;28;137658;-67
2022/03/19 12:24:02;;;;;;;;;;;;;;;;;;4956986;28;107988;-70
2022/03/19 12:26:30;;;;;;;;;;;;;;;;;;4945060;28;107920;-65
2022/03/19 12:28:56;;;;;;;;;;;;;;;;;;4952130;28;122063;-65
2022/03/19 12:31:23;;;;;;;;;;;;;;;;;;4948859;28;114147;-65
2022/03/19 12:33:49;;;;;;;;;;;;;;;;;;4941749;28;134360;-65
2022/03/19 12:36:15;;;;;;;;;;;;;;;;;;4947233;28;105709;-65
2022/03/19 12:38:42;;;;;;;;;;;;;;;;;;4946657;28;135798;-65
2022/03/19 12:41:23;;;;;;;;;;;;;;;;;;4945043;28;123115;-64
2022/03/19 12:43:49;;;;;;;;;;;;;;;;;;4935704;28;123463;-65
2022/03/19 12:46:16;;;;;;;;;;;;;;;;;;4943682;28;135872;-65
2022/03/19 12:48:43;;;;;;;;;;;;;;;;;;4950748;28;136662;-65
2022/03/19 12:51:09;;;;;;;;;;;;;;;;;;4945946;28;135025;-67
2022/03/19 12:53:35;;;;;;;;;;;;;;;;;;4943958;28;135546;-65
2022/03/19 12:56:03;;;;;;;;;;;;;;;;;;4955896;28;106052;-64
2022/03/19 12:58:30;;;;;;;;;;;;;;;;;;4943220;28;135868;-64
2022/03/19 13:00:56;;;;;;;;;;;;;;;;;;4952958;28;107277;-64
2022/03/19 13:03:23;;;;;;;;;;;;;;;;;;4938327;28;108944;-65
2022/03/19 13:05:49;;;;;;;;;;;;;;;;;;4945460;28;135944;-64
2022/03/19 13:08:15;;;;;;;;;;;;;;;;;;4951388;28;138010;-65
2022/03/19 13:10:42;;;;;;;;;;;;;;;;;;4945601;28;109580;-65
2022/03/19 13:13:08;;;;;;;;;;;;;;;;;;4950014;28;128796;-64
2022/03/19 13:15:34;;;;;;;;;;;;;;;;;;4959121;28;116884;-65
2022/03/19 13:18:01;;;;;;;;;;;;;;;;;;4951234;28;137357;-65
2022/03/19 13:20:27;;;;;;;;;;;;;;;;;;4950074;28;137959;-64
2022/03/19 13:22:53;;;;;;;;;;;;;;;;;;4946282;28;124302;-64
2022/03/19 13:25:20;;;;;;;;;;;;;;;;;;4951063;28;130786;-64
2022/03/19 13:27:46;;;;;;;;;;;;;;;;;;4944775;28;136341;-64
2022/03/19 13:30:12;;;;;;;;;;;;;;;;;;4955008;28;126191;-65
2022/03/19 13:32:39;;;;;;;;;;;;;;;;;;4950225;28;129828;-65
2022/03/19 13:35:05;;;;;;;;;;;;;;;;;;4949854;28;123724;-65
2022/03/19 13:37:31;;;;;;;;;;;;;;;;;;4943503;28;134128;-64
2022/03/19 13:39:58;;;;;;;;;;;;;;;;;;4952262;28;136159;-64
2022/03/19 13:42:24;;;;;;;;;;;;;;;;;;4941306;28;124835;-65
2022/03/19 13:44:50;;;;;;;;;;;;;;;;;;4950129;28;137569;-65
2022/03/19 13:47:20;;;;;;;;;;;;;;;;;;4946526;28;107935;-65
2022/03/19 13:49:47;;;;;;;;;;;;;;;;;;4949408;28;123596;-65
2022/03/19 13:52:14;;;;;;;;;;;;;;;;;;4950858;28;108211;-65
2022/03/19 13:54:40;;;;;;;;;;;;;;;;;;4944227;28;138285;-66
2022/03/19 13:57:06;;;;;;;;;;;;;;;;;;4951971;28;123062;-64
2022/03/19 13:59:33;;;;;;;;;;;;;;;;;;4946921;28;135577;-65
2022/03/19 14:02:00;;;;;;;;;;;;;;;;;;4951191;28;121223;-64
2022/03/19 14:04:26;;;;;;;;;;;;;;;;;;4939914;28;137158;-63
2022/03/19 14:06:53;;;;;;;;;;;;;;;;;;4947602;28;138081;-64
2022/03/19 14:09:20;;;;;;;;;;;;;;;;;;4951634;28;123965;-63
2022/03/19 14:11:48;;;;;;;;;;;;;;;;;;4951723;28;138329;-65
2022/03/19 14:14:14;;;;;;;;;;;;;;;;;;4952080;28;133213;-64
2022/03/19 14:16:41;;;;;;;;;;;;;;;;;;4949796;28;110477;-66
2022/03/19 14:19:07;;;;;;;;;;;;;;;;;;4943095;28;137009;-67
2022/03/19 14:21:36;;;;;;;;;;;;;;;;;;4949905;28;122872;-68
2022/03/19 14:24:02;;;;;;;;;;;;;;;;;;4946289;28;131221;-66
2022/03/19 14:26:29;;;;;;;;;;;;;;;;;;4955523;28;139611;-66
2022/03/19 14:28:57;;;;;;;;;;;;;;;;;;4947890;28;124665;-66
2022/03/19 14:31:24;;;;;;;;;;;;;;;;;;4948871;28;136798;-66
2022/03/19 14:33:50;;;;;;;;;;;;;;;;;;4948466;28;137699;-66
2022/03/19 14:36:16;;;;;;;;;;;;;;;;;;4950217;28;125443;-67
2022/03/19 14:38:43;;;;;;;;;;;;;;;;;;4951579;28;132250;-66
2022/03/19 14:41:09;;;;;;;;;;;;;;;;;;4948363;28;117082;-67
2022/03/19 14:43:35;;;;;;;;;;;;;;;;;;4946058;28;137894;-66
2022/03/19 14:46:02;;;;;;;;;;;;;;;;;;4950221;28;108604;-67
2022/03/19 14:48:28;;;;;;;;;;;;;;;;;;4950465;28;107534;-68
2022/03/19 14:50:54;;;;;;;;;;;;;;;;;;4951640;28;137879;-65
2022/03/19 14:53:21;;;;;;;;;;;;;;;;;;4951777;28;139150;-65
2022/03/19 14:55:47;;;;;;;;;;;;;;;;;;4955204;28;120569;-67
2022/03/19 14:58:13;;;;;;;;;;;;;;;;;;4956685;28;138013;-65
2022/03/19 15:00:40;;;;;;;;;;;;;;;;;;4944919;28;108326;-65
2022/03/19 15:03:08;;;;;;;;;;;;;;;;;;4951794;28;138543;-64
2022/03/19 15:05:34;;;;;;;;;;;;;;;;;;4943183;28;138870;-66
2022/03/19 15:08:00;;;;;;;;;;;;;;;;;;4945217;28;115191;-64
2022/03/19 15:10:27;;;;;;;;;;;;;;;;;;4947092;28;138757;-65
2022/03/19 15:12:53;;;;;;;;;;;;;;;;;;4939899;28;134472;-66
2022/03/19 15:15:19;;;;;;;;;;;;;;;;;;4947040;28;124193;-66
2022/03/19 15:17:46;;;;;;;;;;;;;;;;;;4946301;28;137927;-65
2022/03/19 15:20:12;;;;;;;;;;;;;;;;;;4949969;28;136302;-65
2022/03/19 15:22:38;;;;;;;;;;;;;;;;;;4949192;28;137241;-64
2022/03/19 15:25:06;;;;;;;;;;;;;;;;;;4944009;28;139615;-65
2022/03/19 15:27:32;;;;;;;;;;;;;;;;;;4944584;28;118435;-63
2022/03/19 15:29:58;;;;;;;;;;;;;;;;;;4941854;28;108968;-64
2022/03/19 15:32:30;;;;;;;;;;;;;;;;;;4942700;28;135908;-63
2022/03/19 15:34:57;;;;;;;;;;;;;;;;;;4944604;28;121987;-63
2022/03/19 15:37:23;;;;;;;;;;;;;;;;;;4941351;28;137428;-65
2022/03/19 15:39:50;;;;;;;;;;;;;;;;;;4945498;28;109785;-64
2022/03/19 15:42:17;;;;;;;;;;;;;;;;;;4949681;28;126659;-63
2022/03/19 15:44:43;;;;;;;;;;;;;;;;;;4941058;28;113718;-64
2022/03/19 15:47:09;;;;;;;;;;;;;;;;;;4942555;28;123246;-67
2022/03/19 15:49:35;;;;;;;;;;;;;;;;;;4939803;28;137914;-66
2022/03/19 15:52:02;;;;;;;;;;;;;;;;;;4941123;28;135967;-65
2022/03/19 15:54:28;;;;;;;;;;;;;;;;;;4938227;28;123441;-65
2022/03/19 15:56:54;;;;;;;;;;;;;;;;;;4945149;28;139368;-65
2022/03/19 15:59:21;;;;;;;;;;;;;;;;;;4943434;28;140252;-65
2022/03/19 16:01:48;;;;;;;;;;;;;;;;;;4942854;28;119993;-65
2022/03/19 16:04:17;;;;;;;;;;;;;;;;;;4943897;28;137050;-66
2022/03/19 16:06:44;;;;;;;;;;;;;;;;;;4942654;28;115439;-66
2022/03/19 16:09:10;;;;;;;;;;;;;;;;;;4948369;28;123028;-65
2022/03/19 16:11:37;;;;;;;;;;;;;;;;;;4947236;28;109481;-65
2022/03/19 16:14:03;;;;;;;;;;;;;;;;;;4944878;28;123799;-65
2022/03/19 16:16:29;;;;;;;;;;;;;;;;;;4941912;28;139475;-65
2022/03/19 16:18:56;;;;;;;;;;;;;;;;;;4942077;28;140659;-65
2022/03/19 16:21:22;;;;;;;;;;;;;;;;;;4944732;28;125806;-65
2022/03/19 16:23:49;;;;;;;;;;;;;;;;;;4945433;28;139511;-65
2022/03/19 16:26:15;;;;;;;;;;;;;;;;;;4952120;28;107606;-65
2022/03/19 16:28:45;;;;;;;;;;;;;;;;;;4951526;28;124752;-65
2022/03/19 16:31:12;;;;;;;;;;;;;;;;;;4953012;28;128916;-65
2022/03/19 16:33:38;;;;;;;;;;;;;;;;;;4951660;28;121848;-64
2022/03/19 16:36:05;;;;;;;;;;;;;;;;;;4952931;28;135449;-64
2022/03/19 16:38:32;;;;;;;;;;;;;;;;;;4951780;28;118797;-65
2022/03/19 16:40:59;;;;;;;;;;;;;;;;;;4952969;28;125253;-63